Map

Track Data

SID SEASON NUMBER BASIN SUBBASIN NAME ISO_TIME NATURE LAT LON WMO_WIND WMO_PRES WMO_AGENCY TRACK_TYPE DIST2LAND LANDFALL IFLAG USA_AGENCY USA_ATCF_ID USA_LAT USA_LON USA_RECORD USA_STATUS USA_WIND USA_PRES USA_SSHS USA_R34_NE USA_R34_SE USA_R34_SW USA_R34_NW USA_R50_NE USA_R50_SE USA_R50_SW USA_R50_NW USA_R64_NE USA_R64_SE USA_R64_SW USA_R64_NW USA_POCI USA_ROCI USA_RMW USA_EYE TOKYO_LAT TOKYO_LON TOKYO_GRADE TOKYO_WIND TOKYO_PRES TOKYO_R50_DIR TOKYO_R50_LONG TOKYO_R50_SHORT TOKYO_R30_DIR TOKYO_R30_LONG TOKYO_R30_SHORT TOKYO_LAND CMA_LAT CMA_LON CMA_CAT CMA_WIND CMA_PRES HKO_LAT HKO_LON HKO_CAT HKO_WIND HKO_PRES NEWDELHI_LAT NEWDELHI_LON NEWDELHI_GRADE NEWDELHI_WIND NEWDELHI_PRES NEWDELHI_CI NEWDELHI_DP NEWDELHI_POCI REUNION_LAT REUNION_LON REUNION_TYPE REUNION_WIND REUNION_PRES REUNION_TNUM REUNION_CI REUNION_RMW REUNION_R34_NE REUNION_R34_SE REUNION_R34_SW REUNION_R34_NW REUNION_R50_NE REUNION_R50_SE REUNION_R50_SW REUNION_R50_NW REUNION_R64_NE REUNION_R64_SE REUNION_R64_SW REUNION_R64_NW BOM_LAT BOM_LON BOM_TYPE BOM_WIND BOM_PRES BOM_TNUM BOM_CI BOM_RMW BOM_R34_NE BOM_R34_SE BOM_R34_SW BOM_R34_NW BOM_R50_NE BOM_R50_SE BOM_R50_SW BOM_R50_NW BOM_R64_NE BOM_R64_SE BOM_R64_SW BOM_R64_NW BOM_ROCI BOM_POCI BOM_EYE BOM_POS_METHOD BOM_PRES_METHOD NADI_LAT NADI_LON NADI_CAT NADI_WIND NADI_PRES WELLINGTON_LAT WELLINGTON_LON WELLINGTON_WIND WELLINGTON_PRES DS824_LAT DS824_LON DS824_STAGE DS824_WIND DS824_PRES TD9636_LAT TD9636_LON TD9636_STAGE TD9636_WIND TD9636_PRES TD9635_LAT TD9635_LON TD9635_WIND TD9635_PRES TD9635_ROCI NEUMANN_LAT NEUMANN_LON NEUMANN_CLASS NEUMANN_WIND NEUMANN_PRES MLC_LAT MLC_LON MLC_CLASS MLC_WIND MLC_PRES USA_GUST BOM_GUST BOM_GUST_PER REUNION_GUST REUNION_GUST_PER USA_SEAHGT USA_SEARAD_NE USA_SEARAD_SE USA_SEARAD_SW USA_SEARAD_NW STORM_SPEED STORM_DIR
1880218N13302 1880 11 NA NA NOT_NAMED 1880-08-04 12:00:00 TS 12.6000 -58.3000 spur-merge 363 328 _____________O -1 12.6000 -58.3000 TS 35 11 281
1880218N13302 1880 11 NA NA NOT_NAMED 1880-08-04 15:00:00 TS 12.7003 -58.8524 spur-merge 320 292 _____________P -1 12.7003 -58.8524 TS 35 11 281
1880218N13302 1880 11 NA CS NOT_NAMED 1880-08-04 18:00:00 TS 12.8000 -59.4000 spur-merge 292 273 _____________O -1 12.8000 -59.4000 TS 35 11 281
1880218N13302 1880 11 NA CS NOT_NAMED 1880-08-04 21:00:00 TS 12.8998 -59.9426 spur-merge 273 261 _____________P -1 12.8998 -59.9426 TS 35 11 281
1880218N13302 1880 11 NA CS NOT_NAMED 1880-08-05 00:00:00 TS 13.0000 -60.5000 spur-merge 263 258 _____________O -1 13.0000 -60.5000 TS 35 11 280
1880218N13302 1880 11 NA CS NOT_NAMED 1880-08-05 03:00:00 TS 13.1000 -61.1000 spur-merge 268 268 _____________P -1 13.1000 -61.1000 TS 35 12 280
1880218N13302 1880 11 NA CS NOT_NAMED 1880-08-05 06:00:00 TS 13.2000 -61.7000 spur-merge 279 279 _____________O -1 13.2000 -61.7000 TS 35 11 280
1880218N13302 1880 11 NA CS NOT_NAMED 1880-08-05 09:00:00 TS 13.2998 -62.2575 spur-merge 291 291 _____________P -1 13.2998 -62.2575 TS 37 11 281
1880218N13302 1880 11 NA CS NOT_NAMED 1880-08-05 12:00:00 TS 13.4000 -62.8000 spur-merge 302 302 _____________O -1 13.4000 -62.8000 TS 40 11 281
1880218N13302 1880 11 NA CS NOT_NAMED 1880-08-05 15:00:00 TS 13.4999 -63.3500 spur-merge 315 315 _____________P -1 13.4999 -63.3500 TS 40 11 281
1880218N13302 1880 11 NA CS NOT_NAMED 1880-08-05 18:00:00 TS 13.6000 -63.9000 spur-merge 336 335 _____________O -1 13.6000 -63.9000 TS 40 11 280
1880218N13302 1880 11 NA CS NOT_NAMED 1880-08-05 21:00:00 TS 13.6923 -64.4426 spur-merge 347 347 _____________P -1 13.6923 -64.4426 TS 40 11 281
1880218N13302 1880 11 NA CS NOT_NAMED 1880-08-06 00:00:00 TS 13.8000 -65.0000 spur-merge 368 368 _____________O -1 13.8000 -65.0000 TS 40 12 283
1880218N13302 1880 11 NA CS NOT_NAMED 1880-08-06 03:00:00 TS 13.9500 -65.5999 spur-merge 372 372 _____________P -1 13.9500 -65.5999 TS 40 12 284
1880218N13302 1880 11 NA CS NOT_NAMED 1880-08-06 06:00:00 TS 14.1000 -66.2000 spur-merge 391 383 _____________O -1 14.1000 -66.2000 TS 40 12 283
1880218N13302 1880 11 NA CS NOT_NAMED 1880-08-06 09:00:00 TS 14.2073 -66.7576 spur-merge 378 363 _____________P -1 14.2073 -66.7576 TS 42 11 281
1880218N13302 1880 11 NA CS NOT_NAMED 1880-08-06 12:00:00 TS 14.3000 -67.3000 spur-merge 363 343 _____________O -1 14.3000 -67.3000 TS 45 11 280
1880218N13302 1880 11 NA CS NOT_NAMED 1880-08-06 15:00:00 TS 14.3999 -67.8501 spur-merge 336 313 _____________P -1 14.3999 -67.8501 TS 45 11 281
1880218N13302 1880 11 NA CS NOT_NAMED 1880-08-06 18:00:00 TS 14.5000 -68.4000 spur-merge 313 298 _____________O -1 14.5000 -68.4000 TS 45 11 281
1880218N13302 1880 11 NA CS NOT_NAMED 1880-08-06 21:00:00 TS 14.5999 -68.9501 spur-merge 296 289 _____________P -1 14.5999 -68.9501 TS 45 11 281
1880218N13302 1880 11 NA CS NOT_NAMED 1880-08-07 00:00:00 TS 14.7000 -69.5000 spur-merge 294 291 _____________O -1 14.7000 -69.5000 TS 45 11 281
1880218N13302 1880 11 NA CS NOT_NAMED 1880-08-07 03:00:00 TS 14.7999 -70.0575 spur-merge 302 296 _____________P -1 14.7999 -70.0575 TS 45 11 281
1880218N13302 1880 11 NA CS NOT_NAMED 1880-08-07 06:00:00 TS 14.9000 -70.6000 spur-merge 296 287 _____________O -1 14.9000 -70.6000 TS 45 10 281
1880218N13302 1880 11 NA CS NOT_NAMED 1880-08-07 09:00:00 TS 14.9998 -71.1001 spur-merge 292 279 _____________P -1 14.9998 -71.1001 TS 47 10 282
1880218N13302 1880 11 NA CS NOT_NAMED 1880-08-07 12:00:00 TS 15.1000 -71.6000 spur-merge 280 273 _____________O -1 15.1000 -71.6000 TS 50 10 281
1880218N13302 1880 11 NA CS NOT_NAMED 1880-08-07 15:00:00 TS 15.2000 -72.1500 spur-merge 281 278 _____________P -1 15.2000 -72.1500 TS 50 11 281
1880218N13302 1880 11 NA CS NOT_NAMED 1880-08-07 18:00:00 TS 15.3000 -72.7000 spur-merge 292 292 _____________O -1 15.3000 -72.7000 TS 50 10 281
1880218N13302 1880 11 NA CS NOT_NAMED 1880-08-07 21:00:00 TS 15.3921 -73.1777 spur-merge 297 279 _____________P -1 15.3921 -73.1777 TS 50 10 282
1880218N13302 1880 11 NA CS NOT_NAMED 1880-08-08 00:00:00 TS 15.5000 -73.7000 spur-merge 279 268 _____________O -1 15.5000 -73.7000 TS 50 12 283
1880218N13302 1880 11 NA CS NOT_NAMED 1880-08-08 03:00:00 TS 15.6501 -74.3774 spur-merge 262 262 _____________P -1 15.6501 -74.3774 TS 50 14 283
1880218N13302 1880 11 NA CS NOT_NAMED 1880-08-08 06:00:00 TS 15.8000 -75.1000 spur-merge 262 230 _____________O -1 15.8000 -75.1000 TS 50 14 281
1880218N13302 1880 11 NA CS NOT_NAMED 1880-08-08 09:00:00 TS 15.8997 -75.7577 spur-merge 227 208 _____________P -1 15.8997 -75.7577 TS 52 13 279
1880218N13302 1880 11 NA CS NOT_NAMED 1880-08-08 12:00:00 TS 16.0000 -76.4000 spur-merge 208 180 _____________O -1 16.0000 -76.4000 TS 55 13 281
1880218N13302 1880 11 NA CS NOT_NAMED 1880-08-08 15:00:00 TS 16.1498 -77.0499 spur-merge 180 159 _____________P -1 16.1498 -77.0499 TS 55 13 284
1880218N13302 1880 11 NA CS NOT_NAMED 1880-08-08 18:00:00 TS 16.3000 -77.7000 spur-merge 165 165 _____________O -1 16.3000 -77.7000 TS 55 13 281
1880218N13302 1880 11 NA CS NOT_NAMED 1880-08-08 21:00:00 TS 16.3848 -78.3504 spur-merge 183 183 _____________P -1 16.3848 -78.3504 TS 57 13 279
1880218N13302 1880 11 NA CS NOT_NAMED 1880-08-09 00:00:00 TS 16.5000 -79.0000 spur-merge 200 198 _____________O -1 16.5000 -79.0000 TS 60 13 285
1880218N13302 1880 11 NA CS NOT_NAMED 1880-08-09 03:00:00 TS 16.7274 -79.6574 spur-merge 217 208 _____________P -1 16.7274 -79.6574 TS 60 13 292
1880218N13302 1880 11 NA CS NOT_NAMED 1880-08-09 06:00:00 TS 17.0000 -80.3000 spur-merge 242 242 _____________O -1 17.0000 -80.3000 TS 60 13 294
1880218N13302 1880 11 NA CS NOT_NAMED 1880-08-09 09:00:00 TS 17.2497 -80.9002 spur-merge 287 283 _____________P -1 17.2497 -80.9002 TS 65 13 294
1880218N13302 1880 11 NA CS NOT_NAMED 1880-08-09 12:00:00 TS 17.5000 -81.5000 spur-merge 318 302 _____________O -1 17.5000 -81.5000 HU 70 13 293
1880218N13302 1880 11 NA CS NOT_NAMED 1880-08-09 15:00:00 TS 17.7499 -82.1501 spur-merge 297 290 _____________P -1 17.7499 -82.1501 HU 70 13 292
1880218N13302 1880 11 NA CS NOT_NAMED 1880-08-09 18:00:00 TS 18.0000 -82.8000 spur-merge 293 282 _____________O -1 18.0000 -82.8000 HU 70 13 292
1880218N13302 1880 11 NA CS NOT_NAMED 1880-08-09 21:00:00 TS 18.2347 -83.4079 spur-merge 285 285 _____________P -1 18.2347 -83.4079 HU 72 12 294
1880218N13302 1880 11 NA CS NOT_NAMED 1880-08-10 00:00:00 TS 18.5000 -84.0000 spur-merge 300 297 _____________O -1 18.5000 -84.0000 HU 75 13 298
1880218N13302 1880 11 NA CS NOT_NAMED 1880-08-10 03:00:00 TS 18.8424 -84.6075 spur-merge 304 233 _____________P -1 18.8424 -84.6075 HU 75 13 302
1880218N13302 1880 11 NA CS NOT_NAMED 1880-08-10 06:00:00 TS 19.2000 -85.2000 spur-merge 233 178 _____________O -1 19.2000 -85.2000 HU 75 13 301
1880218N13302 1880 11 NA CS NOT_NAMED 1880-08-10 09:00:00 TS 19.5073 -85.7578 spur-merge 167 119 _____________P -1 19.5073 -85.7578 HU 77 12 300
1880218N13302 1880 11 NA CS NOT_NAMED 1880-08-10 12:00:00 TS 19.8000 -86.3000 spur-merge 119 68 _____________O -1 19.8000 -86.3000 HU 80 12 300
1880218N13302 1880 11 NA CS NOT_NAMED 1880-08-10 15:00:00 TS 20.0998 -86.8502 spur-merge 61 0 _____________P -1 20.0998 -86.8502 HU 80 12 300
1880218N13302 1880 11 NA NA NOT_NAMED 1880-08-10 18:00:00 TS 20.4000 -87.4000 spur-merge 0 0 _____________O -1 20.4000 -87.4000 HU 80 12 300
1880218N13302 1880 11 NA NA NOT_NAMED 1880-08-10 21:00:00 TS 20.7074 -87.9576 spur-merge 0 0 _____________P -1 20.7074 -87.9576 HU 82 12 300
1880218N13302 1880 11 NA NA NOT_NAMED 1880-08-11 00:00:00 TS 21.0000 -88.5000 spur-merge 0 0 _____________O -1 21.0000 -88.5000 HU 85 11 299
1880218N13302 1880 11 NA NA NOT_NAMED 1880-08-11 03:00:00 TS 21.2573 -89.0078 spur-merge 0 0 _____________P -1 21.2573 -89.0078 HU 85 11 298
1880218N13302 1880 11 NA GM NOT_NAMED 1880-08-11 06:00:00 TS 21.5000 -89.5000 spur-merge 30 30 _____________O -1 21.5000 -89.5000 HU 85 10 298
1880218N13302 1880 11 NA GM NOT_NAMED 1880-08-11 09:00:00 TS 21.7498 -90.0002 spur-merge 56 56 _____________P -1 21.7498 -90.0002 HU 87 11 298
1880218N13302 1880 11 NA GM NOT_NAMED 1880-08-11 12:00:00 TS 22.0000 -90.5000 spur-merge 102 102 _____________O -1 22.0000 -90.5000 HU 90 11 298
1880218N13302 1880 11 NA GM NOT_NAMED 1880-08-11 15:00:00 TS 22.2498 -91.0002 spur-merge 142 142 _____________P -1 22.2503 -90.9996 HU 92 11 298
1880218N13302 1880 11 NA GM NOT_NAMED 1880-08-11 18:00:00 TS 22.5000 -91.5000 spur-merge 199 _____________O -1 22.5000 -91.5000 HU 95 11 298

About IBTrACS Database

This database is a web-friendly format of International Best Track Archive for Climate Stewardship (IBTrACS), a global best track data archive curated by NOAA dating back to 1842.

Updated: 2021-10-27